createdAt,value
2018-09-06T00:01:36.368Z,17.80
2018-09-06T00:04:04.821Z,17.80
2018-09-06T00:06:33.233Z,17.90
2018-09-06T00:09:04.864Z,17.90
2018-09-06T00:11:33.287Z,18.00
2018-09-06T00:14:01.733Z,18.00
2018-09-06T00:16:30.191Z,18.00
2018-09-06T00:18:58.603Z,17.90
2018-09-06T00:21:26.952Z,17.80
2018-09-06T00:23:55.351Z,17.80
2018-09-06T00:26:24.547Z,17.70
2018-09-06T00:28:52.982Z,17.60
2018-09-06T00:31:21.404Z,17.60
2018-09-06T00:33:49.794Z,17.50
2018-09-06T00:36:18.201Z,17.60
2018-09-06T00:38:46.592Z,17.60
2018-09-06T00:41:17.225Z,17.60
2018-09-06T00:43:45.928Z,17.70
2018-09-06T00:46:14.412Z,17.80
2018-09-06T00:48:42.823Z,17.90
2018-09-06T00:51:11.304Z,17.90
2018-09-06T00:53:39.753Z,17.90
2018-09-06T00:56:08.131Z,17.90
2018-09-06T00:58:36.527Z,17.90
2018-09-06T01:01:04.944Z,17.80
2018-09-06T01:03:33.361Z,17.80
2018-09-06T01:06:01.747Z,17.80
2018-09-06T01:08:30.225Z,17.70
2018-09-06T01:10:58.680Z,17.60
2018-09-06T01:13:27.086Z,17.50
2018-09-06T01:15:55.451Z,17.50
2018-09-06T01:18:24.757Z,17.40
2018-09-06T01:20:53.230Z,17.40
2018-09-06T01:23:21.586Z,17.30
2018-09-06T01:25:49.992Z,17.30
2018-09-06T01:28:19.884Z,17.20
2018-09-06T01:30:48.428Z,17.20
2018-09-06T01:33:16.856Z,17.20
2018-09-06T01:35:51.488Z,17.20
2018-09-06T01:38:31.050Z,17.20
2018-09-06T01:41:00.633Z,17.20
2018-09-06T01:43:29.140Z,17.20
2018-09-06T01:45:57.580Z,17.20
2018-09-06T01:48:25.976Z,17.20
2018-09-06T01:50:54.347Z,17.20
2018-09-06T01:53:22.784Z,17.20
2018-09-06T01:55:51.199Z,17.10
2018-09-06T01:58:19.616Z,17.10
2018-09-06T02:00:47.973Z,17.10
2018-09-06T02:03:16.474Z,17.00
2018-09-06T02:05:44.883Z,17.00
2018-09-06T02:08:13.284Z,17.00
2018-09-06T02:10:41.660Z,17.00
2018-09-06T02:13:10.057Z,16.90
2018-09-06T02:15:38.451Z,16.90
2018-09-06T02:18:06.831Z,16.90
2018-09-06T02:20:35.317Z,16.90
2018-09-06T02:23:03.726Z,16.80
2018-09-06T02:25:32.207Z,16.80
2018-09-06T02:28:00.679Z,16.80
2018-09-06T02:30:29.141Z,16.80
2018-09-06T02:32:57.665Z,16.70
2018-09-06T02:35:26.039Z,16.70
2018-09-06T02:37:54.395Z,16.70
2018-09-06T02:40:28.267Z,16.60
2018-09-06T02:42:57.301Z,16.60
2018-09-06T02:45:25.723Z,16.60
2018-09-06T02:47:54.492Z,16.60
2018-09-06T02:50:28.168Z,16.50
2018-09-06T02:52:57.115Z,16.60
2018-09-06T02:55:26.951Z,16.60
2018-09-06T02:57:55.352Z,16.50
2018-09-06T03:00:30.194Z,16.50
2018-09-06T03:02:58.733Z,16.50
2018-09-06T03:05:27.643Z,16.50
2018-09-06T03:07:57.154Z,16.50
2018-09-06T03:10:28.903Z,16.50
2018-09-06T03:12:57.446Z,16.50
2018-09-06T03:15:25.896Z,16.50
2018-09-06T03:17:54.215Z,16.40
2018-09-06T03:20:22.619Z,16.40
2018-09-06T03:22:51.080Z,16.40
2018-09-06T03:25:19.505Z,16.40
2018-09-06T03:27:48.010Z,16.30
2018-09-06T03:30:16.421Z,16.30
2018-09-06T03:32:44.781Z,16.30
2018-09-06T03:35:13.191Z,16.20
2018-09-06T03:37:41.620Z,16.20
2018-09-06T03:40:10.062Z,16.10
2018-09-06T03:42:38.485Z,16.10
2018-09-06T03:45:06.979Z,16.10
2018-09-06T03:47:35.400Z,16.00
2018-09-06T03:50:03.850Z,16.00
2018-09-06T03:52:32.226Z,16.00
2018-09-06T03:55:00.659Z,15.90
2018-09-06T03:57:29.089Z,15.90
2018-09-06T03:59:57.594Z,15.90
2018-09-06T04:02:25.983Z,15.90
2018-09-06T04:04:54.373Z,15.90
2018-09-06T04:07:22.796Z,15.90
2018-09-06T04:09:51.195Z,15.90
2018-09-06T04:12:19.593Z,15.90
2018-09-06T04:14:47.968Z,15.90
2018-09-06T04:17:16.423Z,15.90
2018-09-06T04:19:44.832Z,15.90
2018-09-06T04:22:13.255Z,15.80
2018-09-06T04:24:42.132Z,15.80
2018-09-06T04:27:32.409Z,15.70
2018-09-06T04:30:00.783Z,15.70
2018-09-06T04:32:29.221Z,15.60
2018-09-06T04:34:57.579Z,15.50
2018-09-06T04:37:31.327Z,15.50
2018-09-06T04:40:00.186Z,15.60
2018-09-06T04:42:28.620Z,15.70
2018-09-06T04:44:57.032Z,15.70
2018-09-06T04:47:40.186Z,15.80
2018-09-06T04:50:08.606Z,15.90
2018-09-06T04:52:37.326Z,16.00
2018-09-06T04:55:05.843Z,16.10
2018-09-06T04:57:34.326Z,16.10
2018-09-06T05:00:02.819Z,16.20
2018-09-06T05:02:31.272Z,16.20
2018-09-06T05:04:59.655Z,16.20
2018-09-06T05:07:28.150Z,16.10
2018-09-06T05:09:56.594Z,16.10
2018-09-06T05:12:25.030Z,16.10
2018-09-06T05:14:54.621Z,16.10
2018-09-06T05:17:23.094Z,16.10
2018-09-06T05:19:51.547Z,16.10
2018-09-06T05:22:19.998Z,16.10
2018-09-06T05:24:49.636Z,16.10
2018-09-06T05:27:18.460Z,16.20
2018-09-06T05:29:46.848Z,16.20
2018-09-06T05:32:15.331Z,16.30
2018-09-06T05:34:44.554Z,16.40
2018-09-06T05:37:13.246Z,16.50
2018-09-06T05:39:43.165Z,16.60
2018-09-06T05:42:11.787Z,16.70
2018-09-06T05:44:53.859Z,16.80
2018-09-06T05:47:22.400Z,16.80
2018-09-06T05:49:50.761Z,16.90
2018-09-06T05:52:19.158Z,17.00
2018-09-06T05:54:47.573Z,17.10
2018-09-06T05:57:15.976Z,17.10
2018-09-06T05:59:44.451Z,17.20
2018-09-06T06:02:12.790Z,17.20
2018-09-06T06:04:41.197Z,17.30
2018-09-06T06:07:09.937Z,17.30
2018-09-06T06:09:38.372Z,17.40
2018-09-06T06:12:06.743Z,17.50
2018-09-06T06:14:35.498Z,17.70
2018-09-06T06:17:03.908Z,17.80
2018-09-06T06:19:32.351Z,18.00
2018-09-06T06:22:00.781Z,18.10
2018-09-06T06:24:29.124Z,18.30
2018-09-06T06:26:57.577Z,18.50
2018-09-06T06:29:25.980Z,18.60
2018-09-06T06:31:54.932Z,18.60
2018-09-06T06:34:23.458Z,18.60
2018-09-06T06:36:51.857Z,18.70
2018-09-06T06:39:20.956Z,18.80
2018-09-06T06:41:49.377Z,18.90
2018-09-06T06:44:17.995Z,19.00
2018-09-06T06:46:46.371Z,19.00
2018-09-06T06:49:14.754Z,19.10
2018-09-06T06:51:43.642Z,19.20
2018-09-06T06:54:21.371Z,19.40
2018-09-06T06:56:49.747Z,19.50
2018-09-06T06:59:18.138Z,19.50
2018-09-06T07:01:47.803Z,19.60
2018-09-06T07:04:16.254Z,19.80
2018-09-06T07:06:44.629Z,19.80
2018-09-06T07:09:13.032Z,19.90
2018-09-06T07:11:41.380Z,19.90
2018-09-06T07:14:10.601Z,20.00
2018-09-06T07:16:39.018Z,20.20
2018-09-06T07:19:07.437Z,20.30
2018-09-06T07:21:38.577Z,20.40
2018-09-06T07:24:07.009Z,20.50
2018-09-06T07:26:35.384Z,20.60
2018-09-06T07:29:03.788Z,20.60
2018-09-06T07:31:32.421Z,20.60
2018-09-06T07:34:01.057Z,20.60
2018-09-06T07:36:30.385Z,20.60
2018-09-06T07:38:58.802Z,20.60
2018-09-06T07:41:27.295Z,20.70
2018-09-06T07:43:55.625Z,20.80
2018-09-06T07:46:24.029Z,20.90
2018-09-06T07:48:52.668Z,21.00
2018-09-06T07:51:21.084Z,21.10
2018-09-06T07:53:49.472Z,21.20
2018-09-06T07:56:17.916Z,21.30
2018-09-06T07:58:46.260Z,21.40
2018-09-06T08:01:14.677Z,21.60
2018-09-06T08:03:43.086Z,21.70
2018-09-06T08:06:11.491Z,21.80
2018-09-06T08:08:39.880Z,21.80
2018-09-06T08:11:08.309Z,21.90
2018-09-06T08:13:36.693Z,22.10
2018-09-06T08:16:05.112Z,22.30
2018-09-06T08:18:33.585Z,22.50
2018-09-06T08:21:02.063Z,22.60
2018-09-06T08:23:30.515Z,22.80
2018-09-06T08:25:59.582Z,22.90
2018-09-06T08:28:27.985Z,23.10
2018-09-06T08:30:56.552Z,23.20
2018-09-06T08:33:24.833Z,23.30
2018-09-06T08:35:53.250Z,23.30
2018-09-06T08:38:21.668Z,23.30
2018-09-06T08:40:50.053Z,23.20
2018-09-06T08:43:18.425Z,23.20
2018-09-06T08:45:46.871Z,23.20
2018-09-06T08:48:15.352Z,23.30
2018-09-06T08:50:43.734Z,23.50
2018-09-06T08:53:12.338Z,23.70
2018-09-06T08:55:40.805Z,23.90
2018-09-06T08:58:10.246Z,24.00
2018-09-06T09:00:41.637Z,24.10
2018-09-06T09:03:11.744Z,24.30
2018-09-06T09:05:40.298Z,24.50
2018-09-06T09:08:08.703Z,24.70
2018-09-06T09:10:37.445Z,24.80
2018-09-06T09:13:06.286Z,24.90
2018-09-06T09:15:34.643Z,25.00
2018-09-06T09:18:04.285Z,24.90
2018-09-06T09:20:33.164Z,24.90
2018-09-06T09:23:01.946Z,25.20
2018-09-06T09:25:30.409Z,25.50
2018-09-06T09:27:59.019Z,25.60
2018-09-06T09:30:27.635Z,25.70
2018-09-06T09:32:56.037Z,25.60
2018-09-06T09:35:24.461Z,25.40
2018-09-06T09:37:52.961Z,25.20
2018-09-06T09:40:21.399Z,25.10
2018-09-06T09:42:49.780Z,25.00
2018-09-06T09:45:18.264Z,25.10
2018-09-06T09:47:46.737Z,25.20
2018-09-06T09:52:42.705Z,25.30
2018-09-06T09:55:11.106Z,25.50
2018-09-06T09:57:39.538Z,25.90
2018-09-06T10:00:07.984Z,26.30
2018-09-06T10:02:41.797Z,26.70
2018-09-06T10:05:15.666Z,27.20
2018-09-06T10:07:49.386Z,27.50
2018-09-06T10:10:18.627Z,27.60
2018-09-06T10:12:47.051Z,27.30
2018-09-06T10:15:15.560Z,26.90
2018-09-06T10:17:43.936Z,26.50
2018-09-06T10:20:12.301Z,26.20
2018-09-06T10:22:40.738Z,25.90
2018-09-06T10:25:09.165Z,25.70
2018-09-06T10:27:37.668Z,25.70
2018-09-06T10:30:06.080Z,25.70
2018-09-06T10:32:35.129Z,25.70
2018-09-06T10:35:03.552Z,25.70
2018-09-06T10:37:32.733Z,25.60
2018-09-06T10:40:01.181Z,25.60
2018-09-06T10:42:29.603Z,25.50
2018-09-06T10:44:58.034Z,25.60
2018-09-06T10:47:26.509Z,25.60
2018-09-06T10:49:54.998Z,25.60
2018-09-06T10:52:23.696Z,25.60
2018-09-06T10:54:52.089Z,25.70
2018-09-06T10:57:20.527Z,25.70
2018-09-06T10:59:48.996Z,25.70
2018-09-06T11:02:17.452Z,25.70
2018-09-06T11:04:45.975Z,25.80
2018-09-06T11:07:14.383Z,25.70
2018-09-06T11:09:42.780Z,25.70
2018-09-06T11:12:11.176Z,25.70
2018-09-06T11:14:39.599Z,25.70
2018-09-06T11:17:08.163Z,25.70
2018-09-06T11:19:36.737Z,25.60
2018-09-06T11:22:05.364Z,25.50
2018-09-06T11:24:33.650Z,25.30
2018-09-06T11:27:02.110Z,25.30
2018-09-06T11:29:30.533Z,25.20
2018-09-06T11:31:59.649Z,25.10
2018-09-06T11:34:28.089Z,25.00
2018-09-06T11:36:56.494Z,24.90
2018-09-06T11:39:25.032Z,24.80
2018-09-06T11:41:53.463Z,24.70
2018-09-06T11:44:21.843Z,24.60
2018-09-06T11:46:50.308Z,24.40
2018-09-06T11:49:18.741Z,24.30
2018-09-06T11:51:47.270Z,24.20
2018-09-06T11:54:15.648Z,24.30
2018-09-06T11:56:44.074Z,24.30
2018-09-06T11:59:12.496Z,24.60
2018-09-06T12:01:40.925Z,25.00
2018-09-06T12:04:09.573Z,25.20
2018-09-06T12:06:38.041Z,25.30
2018-09-06T12:09:06.872Z,25.40
2018-09-06T12:11:36.140Z,25.50
2018-09-06T12:14:04.621Z,25.50
2018-09-06T12:16:33.160Z,25.60
2018-09-06T12:19:02.418Z,25.50
2018-09-06T12:21:30.994Z,25.40
2018-09-06T12:24:00.243Z,25.40
2018-09-06T12:26:28.968Z,25.30
2018-09-06T12:28:57.389Z,25.30
2018-09-06T12:31:25.851Z,25.20
2018-09-06T12:33:54.375Z,25.00
2018-09-06T12:36:22.812Z,24.90
2018-09-06T12:38:51.488Z,24.90
2018-09-06T12:41:19.964Z,24.90
2018-09-06T12:43:48.407Z,25.00
2018-09-06T12:46:16.827Z,25.00
2018-09-06T12:48:45.341Z,25.00
2018-09-06T12:51:13.725Z,25.00
2018-09-06T12:53:42.185Z,25.20
2018-09-06T12:56:10.581Z,25.20
2018-09-06T12:58:39.012Z,25.30
2018-09-06T13:01:07.544Z,25.50
2018-09-06T13:03:35.981Z,25.60
2018-09-06T13:06:04.428Z,25.60
2018-09-06T13:08:32.807Z,25.60
2018-09-06T13:11:01.229Z,25.70
2018-09-06T13:13:30.553Z,26.00
2018-09-06T13:15:58.964Z,27.00
2018-09-06T13:18:27.437Z,27.80
2018-09-06T13:20:55.824Z,27.80
2018-09-06T13:23:24.182Z,27.40
2018-09-06T13:25:52.646Z,27.10
2018-09-06T13:28:21.488Z,27.00
2018-09-06T13:30:49.985Z,26.90
2018-09-06T13:33:18.413Z,27.10
2018-09-06T13:35:46.795Z,27.50
2018-09-06T13:38:15.242Z,27.80
2018-09-06T13:40:43.685Z,27.70
2018-09-06T13:43:12.062Z,27.40
2018-09-06T13:45:40.440Z,26.80
2018-09-06T13:48:08.880Z,26.40
2018-09-06T13:50:37.323Z,26.00
2018-09-06T13:53:05.773Z,25.70
2018-09-06T13:55:34.155Z,25.50
2018-09-06T13:58:02.564Z,25.30
2018-09-06T14:00:31.976Z,25.20
2018-09-06T14:03:00.346Z,25.10
2018-09-06T14:05:28.762Z,25.10
2018-09-06T14:08:04.553Z,25.10
2018-09-06T14:10:32.956Z,25.10
2018-09-06T14:13:01.384Z,25.00
2018-09-06T14:15:29.872Z,25.00
2018-09-06T14:17:58.258Z,25.00
2018-09-06T14:20:26.739Z,25.00
2018-09-06T14:22:55.107Z,24.90
2018-09-06T14:25:23.570Z,24.90
2018-09-06T14:27:51.997Z,24.90
2018-09-06T14:30:20.350Z,24.80
2018-09-06T14:32:49.682Z,24.80
2018-09-06T14:35:18.183Z,24.80
2018-09-06T14:37:46.606Z,24.80
2018-09-06T14:40:15.038Z,24.80
2018-09-06T14:42:43.483Z,24.80
2018-09-06T14:45:11.944Z,24.80
2018-09-06T14:47:40.418Z,24.90
2018-09-06T14:50:08.818Z,24.80
2018-09-06T14:52:37.289Z,24.90
2018-09-06T14:55:05.717Z,24.90
2018-09-06T14:57:34.125Z,24.80
2018-09-06T15:00:02.604Z,24.80
2018-09-06T15:02:31.025Z,24.70
2018-09-06T15:04:59.457Z,24.60
2018-09-06T15:07:28.810Z,24.50
2018-09-06T15:09:57.222Z,24.60
2018-09-06T15:12:25.823Z,24.70
2018-09-06T15:14:54.288Z,24.70
2018-09-06T15:17:22.699Z,24.80
2018-09-06T15:19:51.259Z,24.90
2018-09-06T15:22:19.717Z,25.00
2018-09-06T15:24:48.199Z,25.00
2018-09-06T15:27:16.672Z,25.00
2018-09-06T15:29:45.123Z,24.90
2018-09-06T15:32:13.492Z,25.00
2018-09-06T15:34:41.941Z,24.90
2018-09-06T15:37:10.329Z,24.80
2018-09-06T15:39:38.770Z,24.60
2018-09-06T15:42:07.776Z,24.60
2018-09-06T15:44:36.345Z,24.50
2018-09-06T15:47:04.809Z,24.50
2018-09-06T15:49:33.321Z,24.40
2018-09-06T15:52:01.688Z,24.40
2018-09-06T15:54:30.116Z,24.40
2018-09-06T15:56:58.530Z,24.30
2018-09-06T15:59:26.960Z,24.20
2018-09-06T16:01:55.437Z,24.10
2018-09-06T16:04:23.825Z,24.00
2018-09-06T16:06:52.257Z,23.90
2018-09-06T16:09:20.702Z,23.90
2018-09-06T16:11:49.116Z,23.80
2018-09-06T16:14:17.570Z,23.80
2018-09-06T16:16:46.777Z,23.70
2018-09-06T16:19:15.177Z,23.70
2018-09-06T16:21:43.621Z,23.60
2018-09-06T16:24:12.091Z,23.60
2018-09-06T16:26:40.443Z,23.60
2018-09-06T16:29:08.832Z,23.60
2018-09-06T16:31:37.253Z,23.50
2018-09-06T16:34:09.172Z,23.50
2018-09-06T16:36:37.675Z,23.50
2018-09-06T16:39:07.451Z,23.50
2018-09-06T16:41:35.840Z,23.40
2018-09-06T16:44:04.802Z,23.40
2018-09-06T16:46:33.220Z,23.30
2018-09-06T16:49:01.693Z,23.30
2018-09-06T16:51:30.111Z,23.30
2018-09-06T16:53:58.531Z,23.20
2018-09-06T16:56:26.980Z,23.20
2018-09-06T16:58:55.371Z,23.10
2018-09-06T17:01:23.774Z,23.10
2018-09-06T17:03:53.066Z,23.00
2018-09-06T17:06:21.651Z,23.00
2018-09-06T17:08:50.294Z,23.00
2018-09-06T17:11:18.734Z,22.90
2018-09-06T17:13:47.175Z,22.90
2018-09-06T17:16:15.604Z,22.90
2018-09-06T17:18:44.059Z,22.80
2018-09-06T17:21:12.521Z,22.80
2018-09-06T17:23:40.984Z,22.70
2018-09-06T17:26:09.513Z,22.70
2018-09-06T17:28:37.909Z,22.60
2018-09-06T17:31:06.816Z,22.60
2018-09-06T17:33:35.216Z,22.60
2018-09-06T17:36:03.673Z,22.50
2018-09-06T17:38:32.147Z,22.50
2018-09-06T17:41:01.292Z,22.50
2018-09-06T17:43:29.709Z,22.40
2018-09-06T17:45:58.161Z,22.50
2018-09-06T17:48:26.681Z,22.40
2018-09-06T17:50:55.198Z,22.40
2018-09-06T17:53:23.669Z,22.40
2018-09-06T17:55:52.145Z,22.30
2018-09-06T17:58:20.588Z,22.30
2018-09-06T18:01:02.781Z,22.20
2018-09-06T18:03:31.278Z,22.20
2018-09-06T18:05:59.718Z,22.10
2018-09-06T18:08:28.207Z,22.10
2018-09-06T18:10:56.720Z,22.00
2018-09-06T18:13:25.130Z,22.00
2018-09-06T18:15:53.586Z,22.00
2018-09-06T18:18:22.043Z,21.90
2018-09-06T18:20:50.485Z,21.80
2018-09-06T18:23:18.958Z,21.80
2018-09-06T18:25:47.424Z,21.80
2018-09-06T18:28:15.820Z,21.70
2018-09-06T18:30:44.298Z,21.70
2018-09-06T18:33:12.751Z,21.70
2018-09-06T18:35:41.268Z,21.70
2018-09-06T18:38:09.680Z,21.60
2018-09-06T18:40:38.180Z,21.60
2018-09-06T18:43:06.748Z,21.60
2018-09-06T18:45:35.268Z,21.50
2018-09-06T18:48:04.609Z,21.50
2018-09-06T18:50:33.125Z,21.50
2018-09-06T18:53:01.594Z,21.40
2018-09-06T18:55:30.101Z,21.40
2018-09-06T18:57:58.644Z,21.40
2018-09-06T19:00:27.031Z,21.40
2018-09-06T19:02:55.470Z,21.30
2018-09-06T19:05:23.879Z,21.30
2018-09-06T19:07:52.315Z,21.20
2018-09-06T19:10:20.773Z,21.20
2018-09-06T19:12:49.759Z,21.10
2018-09-06T19:15:18.229Z,21.10
2018-09-06T19:17:46.647Z,21.10
2018-09-06T19:20:15.108Z,21.00
2018-09-06T19:22:43.613Z,20.90
2018-09-06T19:25:12.232Z,20.90
2018-09-06T19:27:40.623Z,20.90
2018-09-06T19:30:09.161Z,20.80
2018-09-06T19:32:37.671Z,20.80
2018-09-06T19:35:06.192Z,20.80
2018-09-06T19:37:34.589Z,20.70
2018-09-06T19:40:03.652Z,20.70
2018-09-06T19:42:32.476Z,20.70
2018-09-06T19:45:00.954Z,20.70
2018-09-06T19:47:29.476Z,20.70
2018-09-06T19:49:57.910Z,20.70
2018-09-06T19:52:26.372Z,20.70
2018-09-06T19:54:54.880Z,20.60
2018-09-06T19:57:23.741Z,20.60
2018-09-06T19:59:54.122Z,20.60
2018-09-06T20:02:26.674Z,20.50
2018-09-06T20:04:55.943Z,20.50
2018-09-06T20:07:24.536Z,20.50
2018-09-06T20:09:53.061Z,20.50
2018-09-06T20:12:41.114Z,20.40
2018-09-06T20:15:21.173Z,20.40
2018-09-06T20:17:49.979Z,20.40
2018-09-06T20:20:22.002Z,20.40
2018-09-06T20:22:50.496Z,20.40
2018-09-06T20:25:18.968Z,20.40
2018-09-06T20:27:47.430Z,20.40
2018-09-06T20:30:15.952Z,20.40
2018-09-06T20:32:46.118Z,20.40
2018-09-06T20:35:14.659Z,20.30
2018-09-06T20:37:44.514Z,20.30
2018-09-06T20:40:12.994Z,20.30
2018-09-06T20:42:41.441Z,20.30
2018-09-06T20:45:09.888Z,20.30
2018-09-06T20:47:42.277Z,20.30
2018-09-06T20:50:10.680Z,20.30
2018-09-06T20:52:39.119Z,20.30
2018-09-06T20:55:07.504Z,20.30
2018-09-06T20:57:35.896Z,20.30
2018-09-06T21:00:04.477Z,20.20
2018-09-06T21:02:39.768Z,20.20
2018-09-06T21:05:11.487Z,20.20
2018-09-06T21:07:40.007Z,20.20
2018-09-06T21:10:08.404Z,20.20
2018-09-06T21:12:36.852Z,20.20
2018-09-06T21:15:05.306Z,20.10
2018-09-06T21:17:34.370Z,20.10
2018-09-06T21:20:02.830Z,20.10
2018-09-06T21:22:31.282Z,20.10
2018-09-06T21:24:59.960Z,20.10
2018-09-06T21:27:28.444Z,20.00
2018-09-06T21:29:57.814Z,20.00
2018-09-06T21:32:26.324Z,20.00
2018-09-06T21:34:55.929Z,19.90
2018-09-06T21:37:24.267Z,19.90
2018-09-06T21:39:52.767Z,19.90
2018-09-06T21:42:21.093Z,19.90
2018-09-06T21:44:49.530Z,19.90
2018-09-06T21:47:17.924Z,19.90
2018-09-06T21:49:46.307Z,19.90
2018-09-06T21:52:14.789Z,19.90
2018-09-06T21:54:43.230Z,20.00
2018-09-06T21:57:11.645Z,20.00
2018-09-06T21:59:40.045Z,20.00
2018-09-06T22:02:12.697Z,20.00
2018-09-06T22:04:41.203Z,20.00
2018-09-06T22:07:09.625Z,20.00
2018-09-06T22:09:38.090Z,20.00
2018-09-06T22:12:11.307Z,20.00
2018-09-06T22:14:39.724Z,20.00
2018-09-06T22:17:08.150Z,20.00
2018-09-06T22:19:36.549Z,20.00
2018-09-06T22:22:04.929Z,20.00
2018-09-06T22:24:33.421Z,19.90
2018-09-06T22:27:01.853Z,19.90
2018-09-06T22:29:30.357Z,19.90
2018-09-06T22:31:58.909Z,19.90
2018-09-06T22:37:03.804Z,19.90
2018-09-06T22:39:32.321Z,19.90
2018-09-06T22:42:00.860Z,19.90
2018-09-06T22:44:29.444Z,19.90
2018-09-06T22:46:57.909Z,19.90
2018-09-06T22:49:26.292Z,19.90
2018-09-06T22:51:54.756Z,19.90
2018-09-06T22:54:23.203Z,19.80
2018-09-06T22:56:51.616Z,19.80
2018-09-06T22:59:19.984Z,19.80
2018-09-06T23:01:48.534Z,19.70
2018-09-06T23:04:16.929Z,19.60
2018-09-06T23:06:46.222Z,19.60
2018-09-06T23:09:14.633Z,19.50
2018-09-06T23:11:43.107Z,19.40
2018-09-06T23:14:11.550Z,19.40
2018-09-06T23:16:39.934Z,19.30
2018-09-06T23:19:08.459Z,19.30
2018-09-06T23:21:36.915Z,19.20
2018-09-06T23:24:05.344Z,19.20
2018-09-06T23:26:33.698Z,19.20
2018-09-06T23:29:02.290Z,19.10
2018-09-06T23:31:30.712Z,19.10
2018-09-06T23:33:59.077Z,19.10
2018-09-06T23:36:27.562Z,19.10
2018-09-06T23:38:56.020Z,19.10
2018-09-06T23:41:25.984Z,19.00
2018-09-06T23:43:54.383Z,19.00
2018-09-06T23:46:22.824Z,19.00
2018-09-06T23:48:51.236Z,19.00
2018-09-06T23:51:19.708Z,19.00
2018-09-06T23:53:48.113Z,18.90
2018-09-06T23:56:16.522Z,18.90
2018-09-06T23:58:44.916Z,18.80
